< < Back
Terminal Aerodrome Forecast


Current Version              Previous Versions:   1  2  3  4  5  6  7  8  9  

Terminal Aerodrome Forecast

249
FTUS42 KTAE 270500
TAFTLH
TAF
KTLH 270520Z 2706/2806 05005KT P6SM SCT060=



Latest METAR

363
SAUS80 KWBC 270800
MTRTLH
METAR KTLH 270753Z AUTO 00000KT 10SM CLR 23/21 A2999 RMK AO2 SLP154
T02330211 $


USA.gov is the U.S. government's official web portal to all federal, state and local government web resources and services.